PTVZE LPPS-LPPT
Flight info
| Callsign | PTVZE |
|---|---|
| Flight time | 1h 28m |
| Altitude | 46000 |
| Route | DEGUN DCT NARTA DCT LUVUP |
| Aircraft | C750/M-SBDE3FGHRWXY/S |
Departure
| Time | 2026-04-26 19:06 |
|---|---|
| Airport | Porto Santo Airport (LPPS) |
Arrival
| Time | 2026-04-26 20:34 |
|---|---|
| Airport | Lisbon Humberto Delgado Airport (LPPT) |
| Time | Latitude | Longitude | Altitude | Speed | Heading |
|---|---|---|---|---|---|
| 2026-04-26 19:00 | 33.06999 | -16.34633 | 245 ft | 0 kts | 304° |
| 2026-04-26 19:04 | 33.06993 | -16.34673 | 245 ft | 13 kts | 248° |
| 2026-04-26 19:04 | 33.06963 | -16.34821 | 245 ft | 12 kts | 270° |
| 2026-04-26 19:05 | 33.06959 | -16.34975 | 248 ft | 6 kts | 329° |
| 2026-04-26 19:05 | 33.07273 | -16.34990 | 249 ft | 99 kts | 358° |
| 2026-04-26 19:05 | 33.08160 | -16.35013 | 469 ft | 141 kts | 0° |
| 2026-04-26 19:06 | 33.09134 | -16.35026 | 1164 ft | 146 kts | 358° |
| 2026-04-26 19:06 | 33.10227 | -16.35077 | 1706 ft | 167 kts | 358° |
| 2026-04-26 19:06 | 33.11468 | -16.35122 | 2312 ft | 190 kts | 358° |
| 2026-04-26 19:06 | 33.12859 | -16.35167 | 2950 ft | 213 kts | 359° |
| 2026-04-26 19:07 | 33.14418 | -16.35216 | 3561 ft | 238 kts | 0° |
| 2026-04-26 19:07 | 33.16128 | -16.35272 | 4437 ft | 249 kts | 1° |
| 2026-04-26 19:07 | 33.17880 | -16.35331 | 5428 ft | 257 kts | 0° |
| 2026-04-26 19:07 | 33.19665 | -16.35173 | 6287 ft | 261 kts | 19° |
| 2026-04-26 19:08 | 33.21186 | -16.34028 | 7268 ft | 261 kts | 41° |
| 2026-04-26 19:08 | 33.22224 | -16.32226 | 8159 ft | 269 kts | 66° |
| 2026-04-26 19:08 | 33.22847 | -16.30121 | 9290 ft | 270 kts | 70° |
| 2026-04-26 19:08 | 33.23464 | -16.27982 | 10230 ft | 276 kts | 69° |
| 2026-04-26 19:09 | 33.24141 | -16.25738 | 10633 ft | 299 kts | 69° |
| 2026-04-26 19:09 | 33.24880 | -16.23297 | 10808 ft | 326 kts | 69° |
| 2026-04-26 19:09 | 33.25667 | -16.20656 | 11142 ft | 343 kts | 70° |
| 2026-04-26 19:09 | 33.26460 | -16.17967 | 11980 ft | 344 kts | 70° |
| 2026-04-26 19:10 | 33.27265 | -16.15267 | 12810 ft | 346 kts | 69° |
| 2026-04-26 19:10 | 33.28082 | -16.12535 | 13404 ft | 354 kts | 70° |
| 2026-04-26 19:10 | 33.28907 | -16.09762 | 14189 ft | 354 kts | 69° |
| 2026-04-26 19:10 | 33.29735 | -16.06969 | 14786 ft | 360 kts | 70° |
| 2026-04-26 19:11 | 33.30579 | -16.04122 | 15363 ft | 365 kts | 69° |
| 2026-04-26 19:11 | 33.31429 | -16.01259 | 16038 ft | 368 kts | 70° |
| 2026-04-26 19:11 | 33.32291 | -15.98349 | 16627 ft | 374 kts | 70° |
| 2026-04-26 19:11 | 33.33155 | -15.95426 | 17389 ft | 375 kts | 70° |
| 2026-04-26 19:12 | 33.34034 | -15.92451 | 17943 ft | 383 kts | 70° |
| 2026-04-26 19:12 | 33.34925 | -15.89432 | 18629 ft | 387 kts | 70° |
| 2026-04-26 19:12 | 33.35826 | -15.86378 | 19242 ft | 391 kts | 70° |
| 2026-04-26 19:12 | 33.36736 | -15.83291 | 19866 ft | 396 kts | 70° |
| 2026-04-26 19:13 | 33.37653 | -15.80176 | 20528 ft | 400 kts | 70° |
| 2026-04-26 19:13 | 33.38561 | -15.77086 | 21134 ft | 405 kts | 70° |
| 2026-04-26 19:13 | 33.39508 | -15.73864 | 21802 ft | 409 kts | 70° |
| 2026-04-26 19:13 | 33.40466 | -15.70599 | 22425 ft | 414 kts | 70° |
| 2026-04-26 19:14 | 33.41463 | -15.67353 | 23023 ft | 418 kts | 67° |
| 2026-04-26 19:14 | 33.43105 | -15.64462 | 23542 ft | 423 kts | 47° |
| 2026-04-26 19:14 | 33.45219 | -15.61996 | 24118 ft | 426 kts | 43° |
| 2026-04-26 19:14 | 33.46667 | -15.60401 | 24454 ft | 429 kts | 42° |
| 2026-04-26 19:15 | 33.49596 | -15.57181 | 25113 ft | 434 kts | 43° |
| 2026-04-26 19:15 | 33.51792 | -15.54680 | 25630 ft | 438 kts | 44° |
| 2026-04-26 19:15 | 33.54013 | -15.52147 | 26128 ft | 442 kts | 43° |
| 2026-04-26 19:15 | 33.56262 | -15.49625 | 26637 ft | 446 kts | 43° |
| 2026-04-26 19:16 | 33.58540 | -15.47076 | 27151 ft | 449 kts | 43° |
| 2026-04-26 19:16 | 33.60821 | -15.44495 | 27624 ft | 454 kts | 43° |
| 2026-04-26 19:16 | 33.63126 | -15.41878 | 28163 ft | 457 kts | 43° |
| 2026-04-26 19:16 | 33.65447 | -15.39255 | 28632 ft | 461 kts | 43° |
| 2026-04-26 19:17 | 33.67798 | -15.36602 | 29176 ft | 464 kts | 43° |
| 2026-04-26 19:17 | 33.70159 | -15.33930 | 29607 ft | 469 kts | 43° |
| 2026-04-26 19:17 | 33.72541 | -15.31223 | 30092 ft | 473 kts | 43° |
| 2026-04-26 19:17 | 33.74941 | -15.28500 | 30532 ft | 476 kts | 43° |
| 2026-04-26 19:18 | 33.77355 | -15.25764 | 30940 ft | 479 kts | 43° |
| 2026-04-26 19:18 | 33.79772 | -15.23018 | 31640 ft | 474 kts | 44° |
| 2026-04-26 19:18 | 33.82160 | -15.20300 | 32387 ft | 471 kts | 44° |
| 2026-04-26 19:18 | 33.84535 | -15.17596 | 32999 ft | 469 kts | 44° |
| 2026-04-26 19:19 | 33.86901 | -15.14903 | 33627 ft | 468 kts | 44° |
| 2026-04-26 19:19 | 33.89262 | -15.12213 | 34236 ft | 467 kts | 44° |
| 2026-04-26 19:19 | 33.91618 | -15.09524 | 34762 ft | 466 kts | 44° |
| 2026-04-26 19:19 | 33.93979 | -15.06827 | 35190 ft | 468 kts | 44° |
| 2026-04-26 19:20 | 33.96337 | -15.04134 | 35690 ft | 469 kts | 44° |
| 2026-04-26 19:20 | 33.97908 | -15.02338 | 35954 ft | 470 kts | 44° |
| 2026-04-26 19:20 | 34.01079 | -14.98710 | 36614 ft | 472 kts | 44° |
| 2026-04-26 19:20 | 34.03463 | -14.95978 | 37150 ft | 471 kts | 44° |
| 2026-04-26 19:21 | 34.05844 | -14.93248 | 37572 ft | 474 kts | 44° |
| 2026-04-26 19:21 | 34.08231 | -14.90510 | 38102 ft | 473 kts | 45° |
| 2026-04-26 19:21 | 34.10624 | -14.87763 | 38584 ft | 475 kts | 44° |
| 2026-04-26 19:21 | 34.13005 | -14.85026 | 39058 ft | 475 kts | 44° |
| 2026-04-26 19:22 | 34.15402 | -14.82269 | 39475 ft | 474 kts | 45° |
| 2026-04-26 19:22 | 34.17796 | -14.79515 | 39817 ft | 477 kts | 45° |
| 2026-04-26 19:22 | 34.20187 | -14.76759 | 40285 ft | 476 kts | 44° |
| 2026-04-26 19:22 | 34.22591 | -14.73988 | 40643 ft | 478 kts | 44° |
| 2026-04-26 19:23 | 34.24997 | -14.71212 | 41079 ft | 478 kts | 44° |
| 2026-04-26 19:23 | 34.27405 | -14.68431 | 41520 ft | 478 kts | 44° |
| 2026-04-26 19:23 | 34.29809 | -14.65652 | 41923 ft | 479 kts | 44° |
| 2026-04-26 19:23 | 34.32218 | -14.62865 | 42382 ft | 479 kts | 44° |
| 2026-04-26 19:24 | 34.34629 | -14.60074 | 42729 ft | 481 kts | 44° |
| 2026-04-26 19:24 | 34.37041 | -14.57279 | 43164 ft | 481 kts | 44° |
| 2026-04-26 19:24 | 34.41886 | -14.51658 | 43926 ft | 483 kts | 44° |
| 2026-04-26 19:25 | 34.44307 | -14.48845 | 44342 ft | 483 kts | 44° |
| 2026-04-26 19:25 | 34.45099 | -14.47925 | 44471 ft | 483 kts | 44° |
| 2026-04-26 19:25 | 34.49166 | -14.43193 | 45048 ft | 484 kts | 44° |
| 2026-04-26 19:25 | 34.51592 | -14.40369 | 45372 ft | 484 kts | 44° |
| 2026-04-26 19:26 | 34.54023 | -14.37535 | 45691 ft | 484 kts | 44° |
| 2026-04-26 19:26 | 34.56442 | -14.34713 | 45996 ft | 480 kts | 44° |
| 2026-04-26 19:26 | 34.58847 | -14.31905 | 46101 ft | 483 kts | 44° |
| 2026-04-26 19:26 | 34.61284 | -14.29057 | 46103 ft | 490 kts | 44° |
| 2026-04-26 19:27 | 34.66250 | -14.23245 | 46125 ft | 502 kts | 44° |
| 2026-04-26 19:27 | 34.71345 | -14.17273 | 46121 ft | 514 kts | 44° |
| 2026-04-26 19:28 | 34.76500 | -14.11219 | 46119 ft | 523 kts | 44° |
| 2026-04-26 19:28 | 34.81765 | -14.05026 | 46110 ft | 521 kts | 44° |
| 2026-04-26 19:29 | 34.86932 | -13.98935 | 46107 ft | 521 kts | 44° |
| 2026-04-26 19:29 | 34.92144 | -13.92780 | 46103 ft | 522 kts | 44° |
| 2026-04-26 19:30 | 34.97374 | -13.86593 | 46128 ft | 529 kts | 44° |
| 2026-04-26 19:30 | 35.01793 | -13.81355 | 46123 ft | 537 kts | 44° |
| 2026-04-26 19:31 | 35.08123 | -13.73838 | 46116 ft | 545 kts | 44° |
| 2026-04-26 19:31 | 35.13580 | -13.67345 | 46121 ft | 550 kts | 44° |
| 2026-04-26 19:32 | 35.19065 | -13.60806 | 46114 ft | 550 kts | 44° |
| 2026-04-26 19:32 | 35.24500 | -13.54312 | 46116 ft | 549 kts | 44° |
| 2026-04-26 19:33 | 35.29998 | -13.47730 | 46098 ft | 549 kts | 44° |
| 2026-04-26 19:33 | 35.35425 | -13.41221 | 46103 ft | 550 kts | 44° |
| 2026-04-26 19:34 | 35.40887 | -13.34655 | 46094 ft | 550 kts | 44° |
| 2026-04-26 19:34 | 35.46345 | -13.28083 | 46099 ft | 549 kts | 45° |
| 2026-04-26 19:35 | 35.51794 | -13.21507 | 46103 ft | 550 kts | 45° |
| 2026-04-26 19:35 | 35.57241 | -13.14921 | 46104 ft | 549 kts | 45° |
| 2026-04-26 19:36 | 35.60877 | -13.10518 | 46099 ft | 549 kts | 45° |
| 2026-04-26 19:36 | 35.68115 | -13.01733 | 46092 ft | 549 kts | 45° |
| 2026-04-26 19:37 | 35.73544 | -12.95129 | 46096 ft | 549 kts | 45° |
| 2026-04-26 19:37 | 35.78971 | -12.88513 | 46098 ft | 549 kts | 45° |
| 2026-04-26 19:38 | 35.83477 | -12.83010 | 46098 ft | 548 kts | 45° |
| 2026-04-26 19:38 | 35.88893 | -12.76383 | 46092 ft | 549 kts | 45° |
| 2026-04-26 19:39 | 35.95186 | -12.68667 | 46092 ft | 548 kts | 45° |
| 2026-04-26 19:39 | 35.99716 | -12.63101 | 46095 ft | 548 kts | 45° |
| 2026-04-26 19:40 | 36.05090 | -12.56484 | 46092 ft | 548 kts | 45° |
| 2026-04-26 19:40 | 36.10208 | -12.49491 | 46108 ft | 548 kts | 49° |
| 2026-04-26 19:41 | 36.15261 | -12.42430 | 46102 ft | 548 kts | 48° |
| 2026-04-26 19:41 | 36.19523 | -12.36542 | 46098 ft | 547 kts | 49° |
| 2026-04-26 19:42 | 36.25384 | -12.28324 | 46101 ft | 548 kts | 48° |
| 2026-04-26 19:42 | 36.30442 | -12.21277 | 46097 ft | 548 kts | 49° |
| 2026-04-26 19:43 | 36.35489 | -12.14185 | 46098 ft | 548 kts | 49° |
| 2026-04-26 19:43 | 36.40538 | -12.07107 | 46102 ft | 547 kts | 49° |
| 2026-04-26 19:44 | 36.45572 | -12.00014 | 46099 ft | 547 kts | 49° |
| 2026-04-26 19:44 | 36.50602 | -11.92925 | 46103 ft | 547 kts | 49° |
| 2026-04-26 19:45 | 36.55621 | -11.85828 | 46093 ft | 547 kts | 49° |
| 2026-04-26 19:45 | 36.60642 | -11.78718 | 46093 ft | 547 kts | 49° |
| 2026-04-26 19:46 | 36.65664 | -11.71589 | 46110 ft | 547 kts | 49° |
| 2026-04-26 19:46 | 36.70665 | -11.64475 | 46105 ft | 546 kts | 49° |
| 2026-04-26 19:47 | 36.74829 | -11.58541 | 46103 ft | 547 kts | 49° |
| 2026-04-26 19:47 | 36.80643 | -11.50236 | 46106 ft | 546 kts | 49° |
| 2026-04-26 19:48 | 36.85640 | -11.43080 | 46100 ft | 546 kts | 49° |
| 2026-04-26 19:48 | 36.90631 | -11.35920 | 46106 ft | 546 kts | 49° |
| 2026-04-26 19:49 | 36.95611 | -11.28759 | 46086 ft | 546 kts | 49° |
| 2026-04-26 19:49 | 37.00591 | -11.21583 | 46061 ft | 544 kts | 49° |
| 2026-04-26 19:50 | 37.03053 | -11.18029 | 45323 ft | 538 kts | 49° |
| 2026-04-26 19:50 | 37.05480 | -11.14521 | 44508 ft | 529 kts | 49° |
| 2026-04-26 19:50 | 37.07857 | -11.11083 | 43887 ft | 516 kts | 49° |
| 2026-04-26 19:50 | 37.10177 | -11.07724 | 43220 ft | 504 kts | 49° |
| 2026-04-26 19:51 | 37.12446 | -11.04435 | 42569 ft | 494 kts | 49° |
| 2026-04-26 19:51 | 37.14665 | -11.01216 | 41925 ft | 484 kts | 49° |
| 2026-04-26 19:51 | 37.16842 | -10.98054 | 41297 ft | 475 kts | 49° |
| 2026-04-26 19:51 | 37.18983 | -10.94942 | 40677 ft | 467 kts | 50° |
| 2026-04-26 19:52 | 37.21090 | -10.91876 | 40067 ft | 462 kts | 49° |
| 2026-04-26 19:52 | 37.23185 | -10.88824 | 39409 ft | 462 kts | 49° |
| 2026-04-26 19:52 | 37.25271 | -10.85784 | 38777 ft | 462 kts | 49° |
| 2026-04-26 19:52 | 37.27369 | -10.82722 | 38185 ft | 461 kts | 49° |
| 2026-04-26 19:53 | 37.29464 | -10.79662 | 37585 ft | 465 kts | 50° |
| 2026-04-26 19:53 | 37.31585 | -10.76562 | 36966 ft | 469 kts | 50° |
| 2026-04-26 19:53 | 37.33714 | -10.73447 | 36351 ft | 473 kts | 50° |
| 2026-04-26 19:53 | 37.35856 | -10.70310 | 35722 ft | 473 kts | 50° |
| 2026-04-26 19:54 | 37.38003 | -10.67162 | 35091 ft | 474 kts | 50° |
| 2026-04-26 19:54 | 37.40149 | -10.64012 | 34466 ft | 474 kts | 51° |
| 2026-04-26 19:54 | 37.42292 | -10.60865 | 33808 ft | 475 kts | 50° |
| 2026-04-26 19:54 | 37.44440 | -10.57707 | 33177 ft | 475 kts | 50° |
| 2026-04-26 19:55 | 37.46600 | -10.54528 | 32442 ft | 478 kts | 50° |
| 2026-04-26 19:55 | 37.48752 | -10.51358 | 31921 ft | 478 kts | 50° |
| 2026-04-26 19:55 | 37.50917 | -10.48166 | 31286 ft | 481 kts | 50° |
| 2026-04-26 19:55 | 37.53098 | -10.44946 | 30648 ft | 483 kts | 50° |
| 2026-04-26 19:56 | 37.55270 | -10.41738 | 29984 ft | 479 kts | 50° |
| 2026-04-26 19:56 | 37.57389 | -10.38605 | 29342 ft | 470 kts | 50° |
| 2026-04-26 19:56 | 37.59495 | -10.35487 | 28727 ft | 466 kts | 50° |
| 2026-04-26 19:56 | 37.61613 | -10.32347 | 28106 ft | 461 kts | 50° |
| 2026-04-26 19:57 | 37.63680 | -10.29281 | 27499 ft | 457 kts | 50° |
| 2026-04-26 19:57 | 37.65724 | -10.26247 | 26902 ft | 452 kts | 50° |
| 2026-04-26 19:57 | 37.67756 | -10.23229 | 26307 ft | 448 kts | 50° |
| 2026-04-26 19:57 | 37.69710 | -10.20323 | 25723 ft | 429 kts | 50° |
| 2026-04-26 19:58 | 37.71601 | -10.17511 | 25184 ft | 413 kts | 50° |
| 2026-04-26 19:58 | 37.73587 | -10.14952 | 24737 ft | 402 kts | 44° |
| 2026-04-26 19:58 | 37.75563 | -10.12496 | 24363 ft | 399 kts | 45° |
| 2026-04-26 19:58 | 37.77462 | -10.10072 | 23990 ft | 402 kts | 45° |
| 2026-04-26 19:59 | 37.79523 | -10.07477 | 23573 ft | 400 kts | 44° |
| 2026-04-26 19:59 | 37.81504 | -10.05021 | 23150 ft | 397 kts | 44° |
| 2026-04-26 19:59 | 37.83433 | -10.02614 | 22768 ft | 395 kts | 45° |
| 2026-04-26 19:59 | 37.85368 | -10.00175 | 22384 ft | 393 kts | 45° |
| 2026-04-26 20:00 | 37.87300 | -9.97743 | 21997 ft | 390 kts | 45° |
| 2026-04-26 20:00 | 37.89221 | -9.95335 | 21621 ft | 388 kts | 45° |
| 2026-04-26 20:00 | 37.91126 | -9.92944 | 21246 ft | 385 kts | 45° |
| 2026-04-26 20:00 | 37.93018 | -9.90560 | 20873 ft | 382 kts | 45° |
| 2026-04-26 20:01 | 37.94897 | -9.88191 | 20498 ft | 376 kts | 45° |
| 2026-04-26 20:01 | 37.96701 | -9.85920 | 20137 ft | 355 kts | 45° |
| 2026-04-26 20:01 | 37.98406 | -9.83772 | 19798 ft | 337 kts | 45° |
| 2026-04-26 20:01 | 37.99906 | -9.81555 | 19414 ft | 329 kts | 59° |
| 2026-04-26 20:02 | 38.00743 | -9.78895 | 19139 ft | 323 kts | 72° |
| 2026-04-26 20:02 | 38.01420 | -9.76179 | 18859 ft | 325 kts | 73° |
| 2026-04-26 20:02 | 38.02101 | -9.73440 | 18555 ft | 326 kts | 73° |
| 2026-04-26 20:02 | 38.02559 | -9.71629 | 18341 ft | 326 kts | 73° |
| 2026-04-26 20:03 | 38.03488 | -9.67984 | 17868 ft | 323 kts | 72° |
| 2026-04-26 20:03 | 38.04169 | -9.65280 | 17548 ft | 320 kts | 73° |
| 2026-04-26 20:03 | 38.04956 | -9.62611 | 17195 ft | 334 kts | 61° |
| 2026-04-26 20:03 | 38.06458 | -9.60371 | 15934 ft | 340 kts | 40° |
| 2026-04-26 20:04 | 38.08579 | -9.58798 | 14163 ft | 370 kts | 25° |
| 2026-04-26 20:04 | 38.10909 | -9.57552 | 13835 ft | 351 kts | 24° |
| 2026-04-26 20:04 | 38.13140 | -9.56245 | 13878 ft | 360 kts | 28° |
| 2026-04-26 20:04 | 38.15326 | -9.54649 | 13600 ft | 363 kts | 32° |
| 2026-04-26 20:05 | 38.17438 | -9.53038 | 13117 ft | 355 kts | 31° |
| 2026-04-26 20:05 | 38.19633 | -9.51515 | 12642 ft | 356 kts | 29° |
| 2026-04-26 20:05 | 38.21795 | -9.50074 | 12174 ft | 346 kts | 30° |
| 2026-04-26 20:05 | 38.23875 | -9.48619 | 11724 ft | 346 kts | 31° |
| 2026-04-26 20:06 | 38.25947 | -9.47134 | 11269 ft | 333 kts | 31° |
| 2026-04-26 20:06 | 38.27912 | -9.45756 | 10830 ft | 311 kts | 31° |
| 2026-04-26 20:06 | 38.29748 | -9.44482 | 10439 ft | 293 kts | 31° |
| 2026-04-26 20:06 | 38.31495 | -9.43257 | 10067 ft | 281 kts | 32° |
| 2026-04-26 20:07 | 38.33185 | -9.42064 | 9678 ft | 276 kts | 32° |
| 2026-04-26 20:07 | 38.34864 | -9.40881 | 9313 ft | 274 kts | 32° |
| 2026-04-26 20:07 | 38.36528 | -9.39712 | 8954 ft | 274 kts | 32° |
| 2026-04-26 20:07 | 38.38199 | -9.38537 | 8585 ft | 274 kts | 32° |
| 2026-04-26 20:08 | 38.39871 | -9.37361 | 8225 ft | 274 kts | 32° |
| 2026-04-26 20:08 | 38.41535 | -9.36189 | 7864 ft | 273 kts | 32° |
| 2026-04-26 20:08 | 38.43198 | -9.35017 | 7504 ft | 272 kts | 32° |
| 2026-04-26 20:08 | 38.44852 | -9.33852 | 7141 ft | 271 kts | 32° |
| 2026-04-26 20:09 | 38.46500 | -9.32689 | 6785 ft | 270 kts | 32° |
| 2026-04-26 20:09 | 38.48138 | -9.31533 | 6432 ft | 269 kts | 32° |
| 2026-04-26 20:09 | 38.49774 | -9.30379 | 6064 ft | 267 kts | 32° |
| 2026-04-26 20:09 | 38.51396 | -9.29233 | 5709 ft | 265 kts | 31° |
| 2026-04-26 20:10 | 38.53003 | -9.28098 | 5363 ft | 259 kts | 31° |
| 2026-04-26 20:10 | 38.54430 | -9.27096 | 5027 ft | 214 kts | 31° |
| 2026-04-26 20:10 | 38.55622 | -9.26253 | 4766 ft | 179 kts | 32° |
| 2026-04-26 20:10 | 38.56680 | -9.25499 | 4547 ft | 178 kts | 31° |
| 2026-04-26 20:11 | 38.57743 | -9.24638 | 4255 ft | 183 kts | 37° |
| 2026-04-26 20:11 | 38.58860 | -9.23892 | 4012 ft | 179 kts | 26° |
| 2026-04-26 20:11 | 38.59983 | -9.23291 | 3790 ft | 173 kts | 25° |
| 2026-04-26 20:12 | 38.62058 | -9.22188 | 3351 ft | 137 kts | 25° |
| 2026-04-26 20:12 | 38.62866 | -9.21753 | 3174 ft | 117 kts | 24° |
| 2026-04-26 20:12 | 38.63584 | -9.21371 | 3049 ft | 109 kts | 24° |
| 2026-04-26 20:12 | 38.64280 | -9.20999 | 2905 ft | 108 kts | 26° |
| 2026-04-26 20:13 | 38.64970 | -9.20631 | 2783 ft | 109 kts | 25° |
| 2026-04-26 20:13 | 38.65671 | -9.20255 | 2639 ft | 109 kts | 25° |
| 2026-04-26 20:13 | 38.66360 | -9.19888 | 2500 ft | 107 kts | 24° |
| 2026-04-26 20:13 | 38.67056 | -9.19516 | 2371 ft | 106 kts | 24° |
| 2026-04-26 20:14 | 38.67740 | -9.19150 | 2251 ft | 116 kts | 24° |
| 2026-04-26 20:14 | 38.68602 | -9.18687 | 2344 ft | 148 kts | 24° |
| 2026-04-26 20:14 | 38.69625 | -9.18140 | 2472 ft | 169 kts | 24° |
| 2026-04-26 20:14 | 38.70811 | -9.17489 | 2710 ft | 202 kts | 24° |
| 2026-04-26 20:15 | 38.72112 | -9.16785 | 2956 ft | 200 kts | 24° |
| 2026-04-26 20:15 | 38.73429 | -9.16100 | 3368 ft | 207 kts | 24° |
| 2026-04-26 20:15 | 38.74779 | -9.15384 | 3520 ft | 214 kts | 24° |
| 2026-04-26 20:15 | 38.76166 | -9.14646 | 3202 ft | 217 kts | 24° |
| 2026-04-26 20:16 | 38.77468 | -9.13963 | 3657 ft | 196 kts | 24° |
| 2026-04-26 20:16 | 38.78767 | -9.13292 | 4314 ft | 205 kts | 24° |
| 2026-04-26 20:16 | 38.80109 | -9.12615 | 4982 ft | 211 kts | 24° |
| 2026-04-26 20:16 | 38.81491 | -9.11941 | 5645 ft | 216 kts | 24° |
| 2026-04-26 20:17 | 38.82941 | -9.11227 | 6031 ft | 232 kts | 23° |
| 2026-04-26 20:17 | 38.84435 | -9.10510 | 6004 ft | 225 kts | 24° |
| 2026-04-26 20:17 | 38.85913 | -9.09801 | 6005 ft | 227 kts | 23° |
| 2026-04-26 20:17 | 38.86915 | -9.09314 | 6003 ft | 227 kts | 24° |
| 2026-04-26 20:18 | 38.88903 | -9.08515 | 5953 ft | 231 kts | 7° |
| 2026-04-26 20:18 | 38.90425 | -9.09151 | 5916 ft | 239 kts | 326° |
| 2026-04-26 20:18 | 38.91292 | -9.10947 | 5916 ft | 243 kts | 284° |
| 2026-04-26 20:18 | 38.91360 | -9.13121 | 6042 ft | 246 kts | 268° |
| 2026-04-26 20:19 | 38.91307 | -9.15324 | 6030 ft | 248 kts | 267° |
| 2026-04-26 20:19 | 38.90724 | -9.17374 | 5968 ft | 246 kts | 230° |
| 2026-04-26 20:19 | 38.89412 | -9.18721 | 6026 ft | 242 kts | 210° |
| 2026-04-26 20:19 | 38.87979 | -9.19854 | 6029 ft | 242 kts | 208° |
| 2026-04-26 20:20 | 38.86562 | -9.20980 | 6029 ft | 238 kts | 208° |
| 2026-04-26 20:20 | 38.85183 | -9.22073 | 6025 ft | 239 kts | 208° |
| 2026-04-26 20:20 | 38.83765 | -9.23206 | 6022 ft | 239 kts | 209° |
| 2026-04-26 20:20 | 38.82348 | -9.24343 | 6014 ft | 241 kts | 208° |
| 2026-04-26 20:21 | 38.80945 | -9.25474 | 5999 ft | 235 kts | 210° |
| 2026-04-26 20:21 | 38.79582 | -9.26568 | 5365 ft | 233 kts | 208° |
| 2026-04-26 20:21 | 38.78192 | -9.27655 | 4854 ft | 229 kts | 209° |
| 2026-04-26 20:21 | 38.76842 | -9.28680 | 4343 ft | 227 kts | 208° |
| 2026-04-26 20:22 | 38.75410 | -9.29738 | 4015 ft | 235 kts | 208° |
| 2026-04-26 20:22 | 38.74028 | -9.30763 | 4016 ft | 225 kts | 209° |
| 2026-04-26 20:22 | 38.73123 | -9.31434 | 4018 ft | 225 kts | 208° |
| 2026-04-26 20:22 | 38.71769 | -9.32447 | 4019 ft | 229 kts | 209° |
| 2026-04-26 20:23 | 38.70402 | -9.33464 | 4016 ft | 228 kts | 208° |
| 2026-04-26 20:23 | 38.69030 | -9.34493 | 4023 ft | 227 kts | 209° |
| 2026-04-26 20:23 | 38.67664 | -9.35508 | 4018 ft | 227 kts | 208° |
| 2026-04-26 20:23 | 38.66291 | -9.36534 | 4019 ft | 228 kts | 209° |
| 2026-04-26 20:24 | 38.64925 | -9.37554 | 4012 ft | 227 kts | 208° |
| 2026-04-26 20:24 | 38.63551 | -9.38579 | 4012 ft | 229 kts | 208° |
| 2026-04-26 20:24 | 38.62180 | -9.39601 | 4022 ft | 229 kts | 209° |
| 2026-04-26 20:24 | 38.60804 | -9.40630 | 4019 ft | 228 kts | 208° |
| 2026-04-26 20:25 | 38.59437 | -9.41657 | 4017 ft | 228 kts | 208° |
| 2026-04-26 20:25 | 38.58448 | -9.42054 | 3943 ft | 224 kts | 181° |
| 2026-04-26 20:25 | 38.56708 | -9.41004 | 3925 ft | 209 kts | 121° |
| 2026-04-26 20:25 | 38.56256 | -9.39294 | 4032 ft | 205 kts | 99° |
| 2026-04-26 20:26 | 38.55978 | -9.37494 | 4027 ft | 205 kts | 99° |
| 2026-04-26 20:26 | 38.55699 | -9.35709 | 4018 ft | 205 kts | 98° |
| 2026-04-26 20:26 | 38.55885 | -9.33973 | 3975 ft | 200 kts | 64° |
| 2026-04-26 20:26 | 38.56582 | -9.32455 | 4020 ft | 200 kts | 58° |
| 2026-04-26 20:27 | 38.57309 | -9.30935 | 4023 ft | 201 kts | 58° |
| 2026-04-26 20:27 | 38.58036 | -9.29382 | 4019 ft | 201 kts | 58° |
| 2026-04-26 20:27 | 38.58744 | -9.27868 | 4014 ft | 200 kts | 59° |
| 2026-04-26 20:27 | 38.59477 | -9.26305 | 4015 ft | 203 kts | 59° |
| 2026-04-26 20:28 | 38.60177 | -9.24811 | 3849 ft | 193 kts | 59° |
| 2026-04-26 20:28 | 38.60840 | -9.23389 | 3607 ft | 172 kts | 59° |
| 2026-04-26 20:28 | 38.61678 | -9.22469 | 3370 ft | 154 kts | 27° |
| 2026-04-26 20:28 | 38.62645 | -9.21901 | 3243 ft | 157 kts | 26° |
| 2026-04-26 20:29 | 38.63576 | -9.21373 | 3050 ft | 134 kts | 25° |
| 2026-04-26 20:29 | 38.64369 | -9.20951 | 2882 ft | 115 kts | 25° |
| 2026-04-26 20:29 | 38.65085 | -9.20570 | 2736 ft | 109 kts | 25° |
| 2026-04-26 20:29 | 38.65773 | -9.20203 | 2612 ft | 105 kts | 25° |
| 2026-04-26 20:30 | 38.66453 | -9.19839 | 2468 ft | 106 kts | 25° |
| 2026-04-26 20:30 | 38.67135 | -9.19475 | 2348 ft | 108 kts | 25° |
| 2026-04-26 20:30 | 38.67829 | -9.19104 | 2208 ft | 109 kts | 24° |
| 2026-04-26 20:30 | 38.68521 | -9.18735 | 2062 ft | 105 kts | 24° |
| 2026-04-26 20:31 | 38.69188 | -9.18378 | 1929 ft | 103 kts | 23° |
| 2026-04-26 20:31 | 38.69843 | -9.18029 | 1795 ft | 101 kts | 23° |
| 2026-04-26 20:31 | 38.70504 | -9.17676 | 1664 ft | 104 kts | 23° |
| 2026-04-26 20:31 | 38.71180 | -9.17314 | 1526 ft | 107 kts | 22° |
| 2026-04-26 20:32 | 38.71871 | -9.16945 | 1369 ft | 107 kts | 25° |
| 2026-04-26 20:32 | 38.72546 | -9.16583 | 1239 ft | 104 kts | 22° |
| 2026-04-26 20:32 | 38.73220 | -9.16223 | 1103 ft | 107 kts | 19° |
| 2026-04-26 20:32 | 38.73911 | -9.15853 | 944 ft | 111 kts | 20° |
| 2026-04-26 20:33 | 38.74609 | -9.15467 | 831 ft | 110 kts | 19° |
| 2026-04-26 20:33 | 38.75331 | -9.15088 | 667 ft | 114 kts | 19° |
| 2026-04-26 20:33 | 38.76086 | -9.14696 | 479 ft | 120 kts | 20° |
| 2026-04-26 20:33 | 38.76835 | -9.14277 | 350 ft | 111 kts | 17° |
| 2026-04-26 20:34 | 38.77347 | -9.14023 | 360 ft | 42 kts | 26° |
| 2026-04-26 20:34 | 38.77565 | -9.13897 | 361 ft | 33 kts | 20° |
| 2026-04-26 20:34 | 38.77772 | -9.13786 | 361 ft | 35 kts | 22° |
| 2026-04-26 20:34 | 38.78067 | -9.13629 | 362 ft | 57 kts | 22° |
| 2026-04-26 20:35 | 38.78265 | -9.13496 | 362 ft | 23 kts | 40° |
| 2026-04-26 20:35 | 38.78368 | -9.13357 | 359 ft | 20 kts | 53° |
| 2026-04-26 20:35 | 38.78370 | -9.13288 | 364 ft | 0 kts | 130° |
| 2026-04-26 20:38 | 38.78349 | -9.13266 | 359 ft | 7 kts | 155° |
| 2026-04-26 20:38 | 38.78298 | -9.13276 | 360 ft | 8 kts | 203° |
| 2026-04-26 20:38 | 38.78249 | -9.13302 | 356 ft | 7 kts | 202° |
| 2026-04-26 20:38 | 38.78200 | -9.13328 | 356 ft | 8 kts | 200° |
| 2026-04-26 20:39 | 38.78150 | -9.13353 | 357 ft | 8 kts | 202° |
| 2026-04-26 20:39 | 38.78115 | -9.13371 | 358 ft | 4 kts | 204° |
| 2026-04-26 20:39 | 38.78086 | -9.13388 | 356 ft | 6 kts | 203° |
| 2026-04-26 20:39 | 38.78036 | -9.13413 | 357 ft | 11 kts | 195° |
| 2026-04-26 20:40 | 38.77937 | -9.13393 | 354 ft | 18 kts | 171° |
| 2026-04-26 20:40 | 38.77805 | -9.13357 | 347 ft | 18 kts | 171° |
| 2026-04-26 20:40 | 38.77736 | -9.13295 | 334 ft | 15 kts | 99° |
| 2026-04-26 20:40 | 38.77749 | -9.13227 | 334 ft | 5 kts | 73° |
| 2026-04-26 20:41 | 38.77778 | -9.13208 | 333 ft | 6 kts | 15° |
| 2026-04-26 20:41 | 38.77806 | -9.13187 | 335 ft | 2 kts | 31° |
| 2026-04-26 20:41 | 38.77816 | -9.13182 | 335 ft | 1 kts | 23° |
| 2026-04-26 20:41 | 38.77826 | -9.13177 | 337 ft | 0 kts | 17° |
| 2026-04-26 20:42 | 38.77835 | -9.13175 | 335 ft | 0 kts | 14° |
| 2026-04-26 20:42 | 38.77836 | -9.13174 | 335 ft | 0 kts | 17° |